Acme, Michigan
Current Conditions -  °F | °C
As of 5:53 AM on Tuesday 21 Oct 2014 (Local Time) from KTVC Reporting Station
Overcast Overcast  
Wind Chill: 42°   Ceiling: 2400
Heat Index: 48°   Visibility: 10mi
Dew Point: 38°   Wind: 14mph
Humidity: 68%   Direction: 10°N
Pressure: 30.02"   Gusts: 22mph
Location:  44.77°N, 85.5°W
Report Text: KTVC 210953Z 01012G19KT 10SM OVC024 09/03 A3002 RMK AO2 SLP169 T00890033
Loading
Personal Weather Stations






























Interactive Weather Map New forecast layout! Learn more

10-Day Weather Forecast

Advertisements
Track Severe Weather on mobile